Time;durP1;ratioP1;P1;durP2;ratioP2;P2;SDS_P1;SDS_P2;PMS_P1;PMS_P2;Temp;Humidity;BMP_temperature;BMP_pressure;BME280_temperature;BME280_humidity;BME280_pressure;Samples;Min_cycle;Max_cycle;Signal;HPM_P1;HPM_P2
2023/10/03 00:01:35;;;;;;;;;;;;;;;;;;5089525;28;19924;-75
2023/10/03 00:04:02;;;;;;;;;;;;;;;;;;5076135;28;19925;-75
2023/10/03 00:06:29;;;;;;;;;;;;;;;;;;5072439;28;19968;-75
2023/10/03 00:08:56;;;;;;;;;;;;;;;;;;5072194;28;19928;-75
2023/10/03 00:11:23;;;;;;;;;;;;;;;;;;5071870;28;19948;-75
2023/10/03 00:13:50;;;;;;;;;;;;;;;;;;5069188;28;19971;-75
2023/10/03 00:16:18;;;;;;;;;;;;;;;;;;5068748;28;20326;-75
2023/10/03 00:18:45;;;;;;;;;;;;;;;;;;5071777;28;20011;-75
2023/10/03 00:21:12;;;;;;;;;;;;;;;;;;5072571;28;19929;-76
2023/10/03 00:23:39;;;;;;;;;;;;;;;;;;5072543;28;20465;-76
2023/10/03 00:26:15;;;;;;;;;;;;;;;;;;5071291;28;19924;-76
2023/10/03 00:28:42;;;;;;;;;;;;;;;;;;5068982;28;19925;-75
2023/10/03 00:31:10;;;;;;;;;;;;;;;;;;5069028;28;20295;-76
2023/10/03 00:33:37;;;;;;;;;;;;;;;;;;5070882;28;19947;-76
2023/10/03 00:36:04;;;;;;;;;;;;;;;;;;5072575;28;19924;-75
2023/10/03 00:38:32;;;;;;;;;;;;;;;;;;5075838;28;20529;-75
2023/10/03 00:40:59;;;;;;;;;;;;;;;;;;5075505;28;19931;-75
2023/10/03 00:43:26;;;;;;;;;;;;;;;;;;5071818;28;20403;-74
2023/10/03 00:45:53;;;;;;;;;;;;;;;;;;5071907;28;19940;-74
2023/10/03 00:48:21;;;;;;;;;;;;;;;;;;5069298;28;19925;-75
2023/10/03 00:50:48;;;;;;;;;;;;;;;;;;5071614;28;19924;-75
2023/10/03 00:53:16;;;;;;;;;;;;;;;;;;5072428;28;19978;-75
2023/10/03 00:55:44;;;;;;;;;;;;;;;;;;5073395;28;19963;-74
2023/10/03 00:58:17;;;;;;;;;;;;;;;;;;5071053;28;19950;-74
2023/10/03 01:00:45;;;;;;;;;;;;;;;;;;5071725;28;19928;-74
2023/10/03 01:03:12;;;;;;;;;;;;;;;;;;5071917;28;19979;-74
2023/10/03 01:05:41;;;;;;;;;;;;;;;;;;5062454;28;19925;-74
2023/10/03 01:08:09;;;;;;;;;;;;;;;;;;5052291;28;19975;-74
2023/10/03 01:10:36;;;;;;;;;;;;;;;;;;5065062;28;20387;-74
2023/10/03 01:13:05;;;;;;;;;;;;;;;;;;5060897;28;19928;-74
2023/10/03 01:15:35;;;;;;;;;;;;;;;;;;5059726;28;20003;-74
2023/10/03 01:18:03;;;;;;;;;;;;;;;;;;5065266;28;19925;-74
2023/10/03 01:20:40;;;;;;;;;;;;;;;;;;5052072;28;20597;-74
2023/10/03 01:23:10;;;;;;;;;;;;;;;;;;5069499;28;19932;-74
2023/10/03 01:25:42;;;;;;;;;;;;;;;;;;5090485;28;20293;-74
2023/10/03 01:28:09;;;;;;;;;;;;;;;;;;5069887;28;20352;-74
2023/10/03 01:30:37;;;;;;;;;;;;;;;;;;5069027;28;19970;-74
2023/10/03 01:33:04;;;;;;;;;;;;;;;;;;5068643;28;20015;-75
2023/10/03 01:35:31;;;;;;;;;;;;;;;;;;5068192;28;20383;-75
2023/10/03 01:37:58;;;;;;;;;;;;;;;;;;5070387;28;19978;-75
2023/10/03 01:40:26;;;;;;;;;;;;;;;;;;5067889;28;20318;-75
2023/10/03 01:42:53;;;;;;;;;;;;;;;;;;5069601;28;20023;-75
2023/10/03 01:45:21;;;;;;;;;;;;;;;;;;5074089;28;20402;-75
2023/10/03 01:47:49;;;;;;;;;;;;;;;;;;5075313;28;19986;-75
2023/10/03 01:50:17;;;;;;;;;;;;;;;;;;5084313;28;19924;-75
2023/10/03 01:52:46;;;;;;;;;;;;;;;;;;5082226;28;19924;-75
2023/10/03 01:55:13;;;;;;;;;;;;;;;;;;5073586;28;19935;-74
2023/10/03 01:57:40;;;;;;;;;;;;;;;;;;5059439;28;20008;-74
2023/10/03 02:00:18;;;;;;;;;;;;;;;;;;5075402;28;19971;-74
2023/10/03 02:02:45;;;;;;;;;;;;;;;;;;5073944;28;19963;-74
2023/10/03 02:05:14;;;;;;;;;;;;;;;;;;5074896;28;19925;-74
2023/10/03 02:07:41;;;;;;;;;;;;;;;;;;5075043;28;19931;-74
2023/10/03 02:10:08;;;;;;;;;;;;;;;;;;5073534;28;19983;-75
2023/10/03 02:12:35;;;;;;;;;;;;;;;;;;5073845;28;19950;-74
2023/10/03 02:15:09;;;;;;;;;;;;;;;;;;5072652;28;19924;-75
2023/10/03 02:17:36;;;;;;;;;;;;;;;;;;5075420;28;19964;-74
2023/10/03 02:20:13;;;;;;;;;;;;;;;;;;5075214;28;19929;-74
2023/10/03 02:22:41;;;;;;;;;;;;;;;;;;5072903;28;19978;-74
2023/10/03 02:25:09;;;;;;;;;;;;;;;;;;5070860;28;19932;-74
2023/10/03 02:27:37;;;;;;;;;;;;;;;;;;5074413;28;19933;-74
2023/10/03 02:30:12;;;;;;;;;;;;;;;;;;5068068;28;19978;-74
2023/10/03 02:32:39;;;;;;;;;;;;;;;;;;5072885;28;20417;-74
2023/10/03 02:35:06;;;;;;;;;;;;;;;;;;5068700;28;20015;-74
2023/10/03 02:37:34;;;;;;;;;;;;;;;;;;5054769;28;19929;-74
2023/10/03 02:40:01;;;;;;;;;;;;;;;;;;5068240;28;19939;-75
2023/10/03 02:42:28;;;;;;;;;;;;;;;;;;5066826;28;19924;-75
2023/10/03 02:44:55;;;;;;;;;;;;;;;;;;5072050;28;20349;-75
2023/10/03 02:47:22;;;;;;;;;;;;;;;;;;5064223;28;19954;-75
2023/10/03 02:49:51;;;;;;;;;;;;;;;;;;5072736;28;20496;-75
2023/10/03 02:52:18;;;;;;;;;;;;;;;;;;5071428;28;20292;-75
2023/10/03 02:54:46;;;;;;;;;;;;;;;;;;5073955;28;19924;-74
2023/10/03 02:57:15;;;;;;;;;;;;;;;;;;5074516;28;19965;-74
2023/10/03 02:59:44;;;;;;;;;;;;;;;;;;5073049;28;19931;-74
2023/10/03 03:02:12;;;;;;;;;;;;;;;;;;5073419;28;19924;-74
2023/10/03 03:04:41;;;;;;;;;;;;;;;;;;5071673;28;19975;-74
2023/10/03 03:07:08;;;;;;;;;;;;;;;;;;5073096;28;19978;-75
2023/10/03 03:09:36;;;;;;;;;;;;;;;;;;5074609;28;19925;-72
2023/10/03 03:12:06;;;;;;;;;;;;;;;;;;5074887;28;19982;-73
2023/10/03 03:14:33;;;;;;;;;;;;;;;;;;5072227;28;19925;-72
2023/10/03 03:17:01;;;;;;;;;;;;;;;;;;5073250;28;19925;-72
2023/10/03 03:19:28;;;;;;;;;;;;;;;;;;5073751;28;19928;-72
2023/10/03 03:21:57;;;;;;;;;;;;;;;;;;5058291;28;19925;-73
2023/10/03 03:24:33;;;;;;;;;;;;;;;;;;5073051;28;19935;-73
2023/10/03 03:27:00;;;;;;;;;;;;;;;;;;5072554;28;20023;-72
2023/10/03 03:29:35;;;;;;;;;;;;;;;;;;5071940;28;20315;-73
2023/10/03 03:32:02;;;;;;;;;;;;;;;;;;5072767;28;19999;-73
2023/10/03 03:34:30;;;;;;;;;;;;;;;;;;5072888;28;19924;-73
2023/10/03 03:37:15;;;;;;;;;;;;;;;;;;5072274;28;20007;-74
2023/10/03 03:39:52;;;;;;;;;;;;;;;;;;5069396;28;20006;-73
2023/10/03 03:42:22;;;;;;;;;;;;;;;;;;5076090;28;20016;-73
2023/10/03 03:44:49;;;;;;;;;;;;;;;;;;5069476;28;19925;-73
2023/10/03 03:47:18;;;;;;;;;;;;;;;;;;5068666;28;19924;-73
2023/10/03 03:49:46;;;;;;;;;;;;;;;;;;5064498;28;19933;-74
2023/10/03 03:52:16;;;;;;;;;;;;;;;;;;5067197;28;20399;-74
2023/10/03 03:54:43;;;;;;;;;;;;;;;;;;5069427;28;20023;-73
2023/10/03 03:57:11;;;;;;;;;;;;;;;;;;5058544;28;20015;-74
2023/10/03 03:59:38;;;;;;;;;;;;;;;;;;5071150;28;20336;-74
2023/10/03 04:02:06;;;;;;;;;;;;;;;;;;5070640;28;19932;-74
2023/10/03 04:04:34;;;;;;;;;;;;;;;;;;5071803;28;19924;-74
2023/10/03 04:07:01;;;;;;;;;;;;;;;;;;5072348;28;19925;-74
2023/10/03 04:09:28;;;;;;;;;;;;;;;;;;5073290;28;20397;-73
2023/10/03 04:11:57;;;;;;;;;;;;;;;;;;5071280;28;19924;-74
2023/10/03 04:14:24;;;;;;;;;;;;;;;;;;5056876;28;19928;-73
2023/10/03 04:16:52;;;;;;;;;;;;;;;;;;5055704;28;19925;-73
2023/10/03 04:19:19;;;;;;;;;;;;;;;;;;5064844;28;19924;-73
2023/10/03 04:21:46;;;;;;;;;;;;;;;;;;5073934;28;19971;-74
2023/10/03 04:24:16;;;;;;;;;;;;;;;;;;5073107;28;20441;-73
2023/10/03 04:26:43;;;;;;;;;;;;;;;;;;5072260;28;19925;-73
2023/10/03 04:29:13;;;;;;;;;;;;;;;;;;5070583;28;20007;-73
2023/10/03 04:31:40;;;;;;;;;;;;;;;;;;5069314;28;20019;-73
2023/10/03 04:34:09;;;;;;;;;;;;;;;;;;5071174;28;20443;-74
2023/10/03 04:36:37;;;;;;;;;;;;;;;;;;5071701;28;19932;-74
2023/10/03 04:39:05;;;;;;;;;;;;;;;;;;5072389;28;20023;-74
2023/10/03 04:41:33;;;;;;;;;;;;;;;;;;5070682;28;19950;-73
2023/10/03 04:44:02;;;;;;;;;;;;;;;;;;5072103;28;19924;-74
2023/10/03 04:46:29;;;;;;;;;;;;;;;;;;5069485;28;19925;-74
2023/10/03 04:48:56;;;;;;;;;;;;;;;;;;5072632;28;19970;-75
2023/10/03 04:51:23;;;;;;;;;;;;;;;;;;5061846;28;19928;-74
2023/10/03 04:53:55;;;;;;;;;;;;;;;;;;5060289;28;19978;-73
2023/10/03 04:56:22;;;;;;;;;;;;;;;;;;5069124;28;19978;-75
2023/10/03 04:58:52;;;;;;;;;;;;;;;;;;5066140;28;19931;-72
2023/10/03 05:01:19;;;;;;;;;;;;;;;;;;5070043;28;20023;-74
2023/10/03 05:03:46;;;;;;;;;;;;;;;;;;5071084;28;19935;-74
2023/10/03 05:06:13;;;;;;;;;;;;;;;;;;5072127;28;19928;-74
2023/10/03 05:08:42;;;;;;;;;;;;;;;;;;5071214;28;20346;-74
2023/10/03 05:11:09;;;;;;;;;;;;;;;;;;5069749;28;19924;-74
2023/10/03 05:13:36;;;;;;;;;;;;;;;;;;5072051;28;19954;-74
2023/10/03 05:16:03;;;;;;;;;;;;;;;;;;5075021;28;19933;-82
2023/10/03 05:18:30;;;;;;;;;;;;;;;;;;5078884;28;19954;-81
2023/10/03 05:20:58;;;;;;;;;;;;;;;;;;5079098;28;19932;-81
2023/10/03 05:23:25;;;;;;;;;;;;;;;;;;5078384;28;20020;-80
2023/10/03 05:25:52;;;;;;;;;;;;;;;;;;5067271;28;19925;-80
2023/10/03 05:28:19;;;;;;;;;;;;;;;;;;5072868;28;19925;-79
2023/10/03 05:30:46;;;;;;;;;;;;;;;;;;5073947;28;19924;-79
2023/10/03 05:33:13;;;;;;;;;;;;;;;;;;5071735;28;19924;-79
2023/10/03 05:35:40;;;;;;;;;;;;;;;;;;5074428;28;19933;-80
2023/10/03 05:38:07;;;;;;;;;;;;;;;;;;5062197;28;19925;-81
2023/10/03 05:40:34;;;;;;;;;;;;;;;;;;5076493;28;19986;-81
2023/10/03 05:43:03;;;;;;;;;;;;;;;;;;5074230;28;20296;-80
2023/10/03 05:45:30;;;;;;;;;;;;;;;;;;5073465;28;19974;-80
2023/10/03 05:47:59;;;;;;;;;;;;;;;;;;5072844;28;20002;-80
2023/10/03 05:50:27;;;;;;;;;;;;;;;;;;5071966;28;19925;-79
2023/10/03 05:52:55;;;;;;;;;;;;;;;;;;5069744;28;19928;-79
2023/10/03 05:55:22;;;;;;;;;;;;;;;;;;5072232;28;20453;-80
2023/10/03 05:57:49;;;;;;;;;;;;;;;;;;5075847;28;19929;-81
2023/10/03 06:00:18;;;;;;;;;;;;;;;;;;5060886;28;20452;-80
2023/10/03 06:02:47;;;;;;;;;;;;;;;;;;5068343;28;19925;-78
2023/10/03 06:05:14;;;;;;;;;;;;;;;;;;5077178;28;19924;-80
2023/10/03 06:07:42;;;;;;;;;;;;;;;;;;5080510;28;19995;-82
2023/10/03 06:10:10;;;;;;;;;;;;;;;;;;5061074;28;19929;-81
2023/10/03 06:12:37;;;;;;;;;;;;;;;;;;5072322;28;19942;-81
2023/10/03 06:15:05;;;;;;;;;;;;;;;;;;5094113;28;19928;-81
2023/10/03 06:17:32;;;;;;;;;;;;;;;;;;5074152;28;19925;-81
2023/10/03 06:19:59;;;;;;;;;;;;;;;;;;5073726;28;20296;-81
2023/10/03 06:22:26;;;;;;;;;;;;;;;;;;5072817;28;20167;-74
2023/10/03 06:24:57;;;;;;;;;;;;;;;;;;5065812;28;19986;-73
2023/10/03 06:27:24;;;;;;;;;;;;;;;;;;5076612;28;19932;-80
2023/10/03 06:29:52;;;;;;;;;;;;;;;;;;5058057;28;19929;-73
2023/10/03 06:32:19;;;;;;;;;;;;;;;;;;5058030;28;19932;-75
2023/10/03 06:34:46;;;;;;;;;;;;;;;;;;5067933;28;19990;-78
2023/10/03 06:37:13;;;;;;;;;;;;;;;;;;5068644;28;19933;-79
2023/10/03 06:39:41;;;;;;;;;;;;;;;;;;5070256;28;19925;-80
2023/10/03 06:42:08;;;;;;;;;;;;;;;;;;5069317;28;19960;-79
2023/10/03 06:44:36;;;;;;;;;;;;;;;;;;5064724;28;19925;-80
2023/10/03 06:47:03;;;;;;;;;;;;;;;;;;5065692;28;19983;-80
2023/10/03 06:49:31;;;;;;;;;;;;;;;;;;5058299;28;19932;-76
2023/10/03 06:52:00;;;;;;;;;;;;;;;;;;5067708;28;19968;-79
2023/10/03 06:54:27;;;;;;;;;;;;;;;;;;5063171;23;19941;-80
2023/10/03 06:56:54;;;;;;;;;;;;;;;;;;5050929;28;20374;-77
2023/10/03 06:59:21;;;;;;;;;;;;;;;;;;5050967;28;19968;-78
2023/10/03 07:01:48;;;;;;;;;;;;;;;;;;5049827;28;20030;-77
2023/10/03 07:04:15;;;;;;;;;;;;;;;;;;5052017;28;20399;-77
2023/10/03 07:06:43;;;;;;;;;;;;;;;;;;5044205;28;19932;-77
2023/10/03 07:09:11;;;;;;;;;;;;;;;;;;5051052;28;19960;-77
2023/10/03 07:11:38;;;;;;;;;;;;;;;;;;5052007;28;20002;-78
2023/10/03 07:14:05;;;;;;;;;;;;;;;;;;5051807;28;19925;-76
2023/10/03 07:16:32;;;;;;;;;;;;;;;;;;5044245;28;19931;-77
2023/10/03 07:18:59;;;;;;;;;;;;;;;;;;5052762;28;19959;-77
2023/10/03 07:21:26;;;;;;;;;;;;;;;;;;5053529;28;19932;-78
2023/10/03 07:23:54;;;;;;;;;;;;;;;;;;5051276;28;19925;-77
2023/10/03 07:26:21;;;;;;;;;;;;;;;;;;5051922;28;19928;-78
2023/10/03 07:28:48;;;;;;;;;;;;;;;;;;5052362;28;19932;-78
2023/10/03 07:31:15;;;;;;;;;;;;;;;;;;5049692;28;19986;-78
2023/10/03 07:33:43;;;;;;;;;;;;;;;;;;5052395;28;20372;-78
2023/10/03 07:36:10;;;;;;;;;;;;;;;;;;5051567;28;19931;-77
2023/10/03 07:38:37;;;;;;;;;;;;;;;;;;5046125;28;20499;-78
2023/10/03 07:41:04;;;;;;;;;;;;;;;;;;5042384;28;20346;-78
2023/10/03 07:43:31;;;;;;;;;;;;;;;;;;5050390;28;19932;-77
2023/10/03 07:45:58;;;;;;;;;;;;;;;;;;5049798;28;19990;-78
2023/10/03 07:48:26;;;;;;;;;;;;;;;;;;5043097;28;19924;-79
2023/10/03 07:50:53;;;;;;;;;;;;;;;;;;5051755;28;19925;-78
2023/10/03 07:53:20;;;;;;;;;;;;;;;;;;5050282;28;19924;-77
2023/10/03 07:55:47;;;;;;;;;;;;;;;;;;5050331;28;19971;-77
2023/10/03 07:58:15;;;;;;;;;;;;;;;;;;5054579;28;19932;-76
2023/10/03 08:00:44;;;;;;;;;;;;;;;;;;5053232;28;19952;-76
2023/10/03 08:03:11;;;;;;;;;;;;;;;;;;5046265;28;20031;-74
2023/10/03 08:05:39;;;;;;;;;;;;;;;;;;5045455;28;19924;-74
2023/10/03 08:08:07;;;;;;;;;;;;;;;;;;5044448;28;20015;-74
2023/10/03 08:10:34;;;;;;;;;;;;;;;;;;5043897;28;19925;-72
2023/10/03 08:13:02;;;;;;;;;;;;;;;;;;5040508;28;20012;-73
2023/10/03 08:15:32;;;;;;;;;;;;;;;;;;5047805;28;20024;-73
2023/10/03 08:17:59;;;;;;;;;;;;;;;;;;5049190;28;20369;-75
2023/10/03 08:20:26;;;;;;;;;;;;;;;;;;5046652;28;20375;-74
2023/10/03 08:22:53;;;;;;;;;;;;;;;;;;5047641;28;19960;-74
2023/10/03 08:25:21;;;;;;;;;;;;;;;;;;5035825;28;19929;-73
2023/10/03 08:27:48;;;;;;;;;;;;;;;;;;5049998;28;19925;-74
2023/10/03 08:30:25;;;;;;;;;;;;;;;;;;5050612;28;19979;-74
2023/10/03 08:32:52;;;;;;;;;;;;;;;;;;5047918;28;20299;-73
2023/10/03 08:35:19;;;;;;;;;;;;;;;;;;5039985;28;19965;-73
2023/10/03 08:37:46;;;;;;;;;;;;;;;;;;5044852;28;19928;-73
2023/10/03 08:40:19;;;;;;;;;;;;;;;;;;5048878;28;19924;-74
2023/10/03 08:42:52;;;;;;;;;;;;;;;;;;5043286;28;19925;-73
2023/10/03 08:45:22;;;;;;;;;;;;;;;;;;5045388;28;20430;-74
2023/10/03 08:47:49;;;;;;;;;;;;;;;;;;5046866;28;21025;-73
2023/10/03 08:50:29;;;;;;;;;;;;;;;;;;5050797;28;20002;-74
2023/10/03 08:52:56;;;;;;;;;;;;;;;;;;5047684;28;19972;-74
2023/10/03 08:55:26;;;;;;;;;;;;;;;;;;5050807;28;19925;-74
2023/10/03 08:57:53;;;;;;;;;;;;;;;;;;5050807;28;19932;-74
2023/10/03 09:00:25;;;;;;;;;;;;;;;;;;5048388;28;19925;-74
2023/10/03 09:02:52;;;;;;;;;;;;;;;;;;5043110;28;20020;-74
2023/10/03 09:05:20;;;;;;;;;;;;;;;;;;5048428;28;19925;-73
2023/10/03 09:07:47;;;;;;;;;;;;;;;;;;5044585;28;19928;-74
2023/10/03 09:10:22;;;;;;;;;;;;;;;;;;5048872;28;19936;-74
2023/10/03 09:12:49;;;;;;;;;;;;;;;;;;5042017;28;20514;-74
2023/10/03 09:15:17;;;;;;;;;;;;;;;;;;5046928;28;20308;-74
2023/10/03 09:17:44;;;;;;;;;;;;;;;;;;5047615;28;19936;-74
2023/10/03 09:20:11;;;;;;;;;;;;;;;;;;5050794;28;19925;-74
2023/10/03 09:22:40;;;;;;;;;;;;;;;;;;5048490;28;19947;-73
2023/10/03 09:25:08;;;;;;;;;;;;;;;;;;5045303;28;20021;-73
2023/10/03 09:27:35;;;;;;;;;;;;;;;;;;5044983;28;19951;-73
2023/10/03 09:30:08;;;;;;;;;;;;;;;;;;5049328;28;20012;-74
2023/10/03 09:32:39;;;;;;;;;;;;;;;;;;5050023;28;19924;-74
2023/10/03 09:35:09;;;;;;;;;;;;;;;;;;5049606;28;19983;-74
2023/10/03 09:37:36;;;;;;;;;;;;;;;;;;5048141;28;20308;-74
2023/10/03 09:40:16;;;;;;;;;;;;;;;;;;5049228;28;20281;-74
2023/10/03 09:42:48;;;;;;;;;;;;;;;;;;5048902;28;20261;-74
2023/10/03 09:45:17;;;;;;;;;;;;;;;;;;5050009;28;20119;-74
2023/10/03 09:47:44;;;;;;;;;;;;;;;;;;5048893;28;19932;-74
2023/10/03 09:50:12;;;;;;;;;;;;;;;;;;5040732;28;20384;-73
2023/10/03 09:52:44;;;;;;;;;;;;;;;;;;5050186;28;19932;-73
2023/10/03 09:55:22;;;;;;;;;;;;;;;;;;5049586;28;20332;-72
2023/10/03 09:57:51;;;;;;;;;;;;;;;;;;5049305;28;20373;-73
2023/10/03 10:00:38;;;;;;;;;;;;;;;;;;5050516;28;19974;-72
2023/10/03 10:03:05;;;;;;;;;;;;;;;;;;5048420;28;19984;-74
2023/10/03 10:05:32;;;;;;;;;;;;;;;;;;5043193;28;20067;-79
2023/10/03 10:08:06;;;;;;;;;;;;;;;;;;5053288;28;20038;-77
2023/10/03 10:10:34;;;;;;;;;;;;;;;;;;5049164;28;19925;-75
2023/10/03 10:13:04;;;;;;;;;;;;;;;;;;5052366;28;19947;-75
2023/10/03 10:15:31;;;;;;;;;;;;;;;;;;5046687;28;19932;-76
2023/10/03 10:17:58;;;;;;;;;;;;;;;;;;5051189;28;19929;-75
2023/10/03 10:20:32;;;;;;;;;;;;;;;;;;5051247;28;19925;-76
2023/10/03 10:22:58;;;;;;;;;;;;;;;;;;5051727;28;19929;-75
2023/10/03 10:25:26;;;;;;;;;;;;;;;;;;5050162;28;20335;-74
2023/10/03 10:27:53;;;;;;;;;;;;;;;;;;5049329;28;19966;-75
2023/10/03 10:30:21;;;;;;;;;;;;;;;;;;5046514;28;19932;-75
2023/10/03 10:32:48;;;;;;;;;;;;;;;;;;5049362;28;20356;-75
2023/10/03 10:35:16;;;;;;;;;;;;;;;;;;5047668;28;19925;-75
2023/10/03 10:37:43;;;;;;;;;;;;;;;;;;5063861;22;19924;-75
2023/10/03 10:40:21;;;;;;;;;;;;;;;;;;5061410;28;20452;-74
2023/10/03 10:42:48;;;;;;;;;;;;;;;;;;5059175;28;19939;-73
2023/10/03 10:45:16;;;;;;;;;;;;;;;;;;5066191;28;19925;-73
2023/10/03 10:47:43;;;;;;;;;;;;;;;;;;5067234;28;20073;-73
2023/10/03 10:50:11;;;;;;;;;;;;;;;;;;5064026;28;19970;-76
2023/10/03 10:52:38;;;;;;;;;;;;;;;;;;5066087;28;21294;-79
2023/10/03 10:55:05;;;;;;;;;;;;;;;;;;5064081;28;19978;-79
2023/10/03 10:57:32;;;;;;;;;;;;;;;;;;5062099;28;19932;-80
2023/10/03 10:59:59;;;;;;;;;;;;;;;;;;5068551;22;19928;-74
2023/10/03 11:02:26;;;;;;;;;;;;;;;;;;5037015;28;20347;-73
2023/10/03 11:04:54;;;;;;;;;;;;;;;;;;5046725;28;20026;-74
2023/10/03 11:07:22;;;;;;;;;;;;;;;;;;5045611;28;20019;-74
2023/10/03 11:09:50;;;;;;;;;;;;;;;;;;5046256;28;19924;-74
2023/10/03 11:12:17;;;;;;;;;;;;;;;;;;5044184;28;20022;-75
2023/10/03 11:14:44;;;;;;;;;;;;;;;;;;5042662;28;19946;-74
2023/10/03 11:17:11;;;;;;;;;;;;;;;;;;5040071;28;19924;-75
2023/10/03 11:19:38;;;;;;;;;;;;;;;;;;5045899;28;20280;-76
2023/10/03 11:22:05;;;;;;;;;;;;;;;;;;5042667;28;19933;-74
2023/10/03 11:24:33;;;;;;;;;;;;;;;;;;5047906;28;19952;-75
2023/10/03 11:27:00;;;;;;;;;;;;;;;;;;5045144;28;19979;-74
2023/10/03 11:29:27;;;;;;;;;;;;;;;;;;5046767;28;19932;-74
2023/10/03 11:31:54;;;;;;;;;;;;;;;;;;5047327;28;20474;-74
2023/10/03 11:34:21;;;;;;;;;;;;;;;;;;5048671;28;19925;-73
2023/10/03 11:36:49;;;;;;;;;;;;;;;;;;5048463;28;19929;-75
2023/10/03 11:39:16;;;;;;;;;;;;;;;;;;5046109;28;19932;-75
2023/10/03 11:41:44;;;;;;;;;;;;;;;;;;5046702;28;19932;-74
2023/10/03 11:44:11;;;;;;;;;;;;;;;;;;5041284;28;19931;-74
2023/10/03 11:46:39;;;;;;;;;;;;;;;;;;5043699;28;19987;-75
2023/10/03 11:49:08;;;;;;;;;;;;;;;;;;5048571;28;19960;-75
2023/10/03 11:51:38;;;;;;;;;;;;;;;;;;5057587;28;19932;-76
2023/10/03 11:54:08;;;;;;;;;;;;;;;;;;5051810;28;19971;-74
2023/10/03 11:56:35;;;;;;;;;;;;;;;;;;5048881;28;20346;-75
2023/10/03 11:59:02;;;;;;;;;;;;;;;;;;5050737;28;19933;-75
2023/10/03 12:01:29;;;;;;;;;;;;;;;;;;5052419;28;19924;-76
2023/10/03 12:03:56;;;;;;;;;;;;;;;;;;5058145;28;20380;-75
2023/10/03 12:06:24;;;;;;;;;;;;;;;;;;5050464;28;19924;-75
2023/10/03 12:08:51;;;;;;;;;;;;;;;;;;5051028;28;19925;-74
2023/10/03 12:11:19;;;;;;;;;;;;;;;;;;5056115;28;19924;-76
2023/10/03 12:13:46;;;;;;;;;;;;;;;;;;5051279;28;19929;-76
2023/10/03 12:16:15;;;;;;;;;;;;;;;;;;5050843;28;19925;-76
2023/10/03 12:18:42;;;;;;;;;;;;;;;;;;5049376;28;19924;-75
2023/10/03 12:21:11;;;;;;;;;;;;;;;;;;5052375;28;19929;-75
2023/10/03 12:23:38;;;;;;;;;;;;;;;;;;5052994;28;20000;-74
2023/10/03 12:26:05;;;;;;;;;;;;;;;;;;5048762;28;19925;-75
2023/10/03 12:28:32;;;;;;;;;;;;;;;;;;5054577;28;19937;-72
2023/10/03 12:30:59;;;;;;;;;;;;;;;;;;5054856;28;20376;-75
2023/10/03 12:33:26;;;;;;;;;;;;;;;;;;5051183;28;19964;-76
2023/10/03 12:35:53;;;;;;;;;;;;;;;;;;5052775;28;19925;-75
2023/10/03 12:38:20;;;;;;;;;;;;;;;;;;5052857;28;19994;-74
2023/10/03 12:40:48;;;;;;;;;;;;;;;;;;5049854;28;20420;-75
2023/10/03 12:43:16;;;;;;;;;;;;;;;;;;5050106;28;19971;-74
2023/10/03 12:45:43;;;;;;;;;;;;;;;;;;5061843;28;19978;-75
2023/10/03 12:48:12;;;;;;;;;;;;;;;;;;5046822;28;20449;-75
2023/10/03 12:50:39;;;;;;;;;;;;;;;;;;5053349;28;19956;-74
2023/10/03 12:53:10;;;;;;;;;;;;;;;;;;5049962;28;19931;-74
2023/10/03 12:55:38;;;;;;;;;;;;;;;;;;5053942;28;19932;-74
2023/10/03 12:58:05;;;;;;;;;;;;;;;;;;5038103;28;19924;-74
2023/10/03 13:00:34;;;;;;;;;;;;;;;;;;5048258;28;19929;-74
2023/10/03 13:03:01;;;;;;;;;;;;;;;;;;5050848;28;19989;-74
2023/10/03 13:05:28;;;;;;;;;;;;;;;;;;5048266;28;19950;-72
2023/10/03 13:07:55;;;;;;;;;;;;;;;;;;5048232;28;20051;-74
2023/10/03 13:10:24;;;;;;;;;;;;;;;;;;5046699;28;19925;-75
2023/10/03 13:12:54;;;;;;;;;;;;;;;;;;5055846;28;20007;-71
2023/10/03 13:15:21;;;;;;;;;;;;;;;;;;5054078;28;19924;-74
2023/10/03 13:17:48;;;;;;;;;;;;;;;;;;5050260;28;19933;-73
2023/10/03 13:20:18;;;;;;;;;;;;;;;;;;5048879;28;20011;-74
2023/10/03 13:22:45;;;;;;;;;;;;;;;;;;5050179;28;19933;-73
2023/10/03 13:25:12;;;;;;;;;;;;;;;;;;5063180;28;20449;-75
2023/10/03 13:27:39;;;;;;;;;;;;;;;;;;5055527;28;20013;-73
2023/10/03 13:30:10;;;;;;;;;;;;;;;;;;5052864;28;19925;-72
2023/10/03 13:32:37;;;;;;;;;;;;;;;;;;5047331;28;19955;-72
2023/10/03 13:35:04;;;;;;;;;;;;;;;;;;5050318;28;19968;-73
2023/10/03 13:37:32;;;;;;;;;;;;;;;;;;5051392;28;19979;-73
2023/10/03 13:40:05;;;;;;;;;;;;;;;;;;5049955;28;19960;-74
2023/10/03 13:42:32;;;;;;;;;;;;;;;;;;5050702;28;20019;-74
2023/10/03 13:44:59;;;;;;;;;;;;;;;;;;5053641;28;20062;-74
2023/10/03 13:47:26;;;;;;;;;;;;;;;;;;5046488;28;20364;-74
2023/10/03 13:49:53;;;;;;;;;;;;;;;;;;5055062;28;19978;-74
2023/10/03 13:52:20;;;;;;;;;;;;;;;;;;5051332;28;19999;-74
2023/10/03 13:54:47;;;;;;;;;;;;;;;;;;5060515;28;19929;-72
2023/10/03 13:57:16;;;;;;;;;;;;;;;;;;5053355;28;19944;-74
2023/10/03 13:59:43;;;;;;;;;;;;;;;;;;5053981;28;20303;-74
2023/10/03 14:02:11;;;;;;;;;;;;;;;;;;5045289;28;19991;-73
2023/10/03 14:04:38;;;;;;;;;;;;;;;;;;5050092;28;19925;-74
2023/10/03 14:07:05;;;;;;;;;;;;;;;;;;5052769;28;20667;-74
2023/10/03 14:09:32;;;;;;;;;;;;;;;;;;5054521;28;19924;-73
2023/10/03 14:12:00;;;;;;;;;;;;;;;;;;5057107;28;19925;-78
2023/10/03 14:14:28;;;;;;;;;;;;;;;;;;5053317;28;20003;-77
2023/10/03 14:16:58;;;;;;;;;;;;;;;;;;5063083;28;19947;-74
2023/10/03 14:19:25;;;;;;;;;;;;;;;;;;5054020;28;19924;-77
2023/10/03 14:21:52;;;;;;;;;;;;;;;;;;5052741;28;19997;-76
2023/10/03 14:24:20;;;;;;;;;;;;;;;;;;5057849;28;19960;-76
2023/10/03 14:26:47;;;;;;;;;;;;;;;;;;5040808;28;20060;-75
2023/10/03 14:29:14;;;;;;;;;;;;;;;;;;5046951;28;19978;-74
2023/10/03 14:31:41;;;;;;;;;;;;;;;;;;5048366;28;19935;-78
2023/10/03 14:34:10;;;;;;;;;;;;;;;;;;5048955;28;19924;-76
2023/10/03 14:36:37;;;;;;;;;;;;;;;;;;5050360;28;20016;-78
2023/10/03 14:39:06;;;;;;;;;;;;;;;;;;5053671;28;20360;-75
2023/10/03 14:41:33;;;;;;;;;;;;;;;;;;5049920;28;19929;-76
2023/10/03 14:44:00;;;;;;;;;;;;;;;;;;5047880;28;19925;-74
2023/10/03 14:46:27;;;;;;;;;;;;;;;;;;5044981;28;19932;-76
2023/10/03 14:48:54;;;;;;;;;;;;;;;;;;5051543;28;19932;-76
2023/10/03 14:51:22;;;;;;;;;;;;;;;;;;5045887;28;19936;-76
2023/10/03 14:53:50;;;;;;;;;;;;;;;;;;5049727;28;20383;-76
2023/10/03 14:56:17;;;;;;;;;;;;;;;;;;5052617;28;19924;-74
2023/10/03 14:58:44;;;;;;;;;;;;;;;;;;5051457;28;20008;-75
2023/10/03 15:01:12;;;;;;;;;;;;;;;;;;5050747;28;19925;-74
2023/10/03 15:03:39;;;;;;;;;;;;;;;;;;5050847;28;19925;-74
2023/10/03 15:06:06;;;;;;;;;;;;;;;;;;5053509;28;20871;-74
2023/10/03 15:08:34;;;;;;;;;;;;;;;;;;5051023;28;19925;-76
2023/10/03 15:11:02;;;;;;;;;;;;;;;;;;5050673;28;19947;-74
2023/10/03 15:13:29;;;;;;;;;;;;;;;;;;5051897;28;20007;-75
2023/10/03 15:15:56;;;;;;;;;;;;;;;;;;5049200;28;20463;-76
2023/10/03 15:18:24;;;;;;;;;;;;;;;;;;5051644;28;20025;-74
2023/10/03 15:20:51;;;;;;;;;;;;;;;;;;5045079;28;20025;-75
2023/10/03 15:23:18;;;;;;;;;;;;;;;;;;5044859;28;19933;-74
2023/10/03 15:25:46;;;;;;;;;;;;;;;;;;5052053;28;19929;-73
2023/10/03 15:28:14;;;;;;;;;;;;;;;;;;5048126;28;19925;-75
2023/10/03 15:30:41;;;;;;;;;;;;;;;;;;5049637;28;19932;-74
2023/10/03 15:33:08;;;;;;;;;;;;;;;;;;5049068;28;19964;-75
2023/10/03 15:35:35;;;;;;;;;;;;;;;;;;5035486;28;19999;-74
2023/10/03 15:38:02;;;;;;;;;;;;;;;;;;5052170;28;19964;-75
2023/10/03 15:40:31;;;;;;;;;;;;;;;;;;5053150;28;19929;-75
2023/10/03 15:42:58;;;;;;;;;;;;;;;;;;5052922;28;19939;-74
2023/10/03 15:45:25;;;;;;;;;;;;;;;;;;5052192;28;20012;-74
2023/10/03 15:47:52;;;;;;;;;;;;;;;;;;5051317;28;19987;-75
2023/10/03 15:50:20;;;;;;;;;;;;;;;;;;5051744;28;19928;-74
2023/10/03 15:52:47;;;;;;;;;;;;;;;;;;5043164;28;19932;-73
2023/10/03 15:55:14;;;;;;;;;;;;;;;;;;5035473;28;19979;-75
2023/10/03 15:57:42;;;;;;;;;;;;;;;;;;5050846;28;19931;-75
2023/10/03 16:00:11;;;;;;;;;;;;;;;;;;5052314;28;20380;-74
2023/10/03 16:02:38;;;;;;;;;;;;;;;;;;5049447;28;19929;-74
2023/10/03 16:05:06;;;;;;;;;;;;;;;;;;5047623;28;19947;-74
2023/10/03 16:07:34;;;;;;;;;;;;;;;;;;5050831;28;19925;-75
2023/10/03 16:10:03;;;;;;;;;;;;;;;;;;5050078;28;20320;-74
2023/10/03 16:12:32;;;;;;;;;;;;;;;;;;5047644;28;19968;-73
2023/10/03 16:14:59;;;;;;;;;;;;;;;;;;5052538;28;20341;-74
2023/10/03 16:17:26;;;;;;;;;;;;;;;;;;5052575;28;19924;-74
2023/10/03 16:19:53;;;;;;;;;;;;;;;;;;5047116;28;20305;-73
2023/10/03 16:22:20;;;;;;;;;;;;;;;;;;5049928;28;19924;-74
2023/10/03 16:24:47;;;;;;;;;;;;;;;;;;5044153;28;19975;-74
2023/10/03 16:27:14;;;;;;;;;;;;;;;;;;5040680;28;20396;-75
2023/10/03 16:29:44;;;;;;;;;;;;;;;;;;5048824;28;19929;-74
2023/10/03 16:32:12;;;;;;;;;;;;;;;;;;5062125;28;20398;-75
2023/10/03 16:34:40;;;;;;;;;;;;;;;;;;5053977;28;19928;-75
2023/10/03 16:37:07;;;;;;;;;;;;;;;;;;5049677;28;20347;-75
2023/10/03 16:39:35;;;;;;;;;;;;;;;;;;5049749;28;19925;-74
2023/10/03 16:42:03;;;;;;;;;;;;;;;;;;5048847;28;20288;-82
2023/10/03 16:44:30;;;;;;;;;;;;;;;;;;5047040;28;19995;-79
2023/10/03 16:46:58;;;;;;;;;;;;;;;;;;5046965;28;19925;-80
2023/10/03 16:49:25;;;;;;;;;;;;;;;;;;5049439;28;19961;-80
2023/10/03 16:51:52;;;;;;;;;;;;;;;;;;5043554;28;19929;-79